createdAt,value
2019-01-12T00:02:02.588Z,17.05
2019-01-12T00:04:32.100Z,14.58
2019-01-12T00:07:01.690Z,22.00
2019-01-12T00:09:31.288Z,12.47
2019-01-12T00:12:00.792Z,15.35
2019-01-12T00:14:36.550Z,11.87
2019-01-12T00:17:06.071Z,15.38
2019-01-12T00:19:35.744Z,14.73
2019-01-12T00:22:26.077Z,7.33
2019-01-12T00:24:56.227Z,10.20
2019-01-12T00:27:26.191Z,10.08
2019-01-12T00:29:56.381Z,12.50
2019-01-12T00:32:45.617Z,10.05
2019-01-12T00:35:15.293Z,10.30
2019-01-12T00:37:44.790Z,13.53
2019-01-12T00:40:14.378Z,11.97
2019-01-12T00:42:43.975Z,16.80
2019-01-12T00:45:32.886Z,12.43
2019-01-12T00:48:02.506Z,10.03
2019-01-12T00:53:11.203Z,11.60
2019-01-12T00:55:40.679Z,11.80
2019-01-12T00:58:10.218Z,11.47
2019-01-12T01:00:39.767Z,9.83
2019-01-12T01:03:09.275Z,14.93
2019-01-12T01:05:38.748Z,12.20
2019-01-12T01:08:08.351Z,9.30
2019-01-12T01:13:26.500Z,18.23
2019-01-12T01:15:56.515Z,10.65
2019-01-12T01:18:26.546Z,13.30
2019-01-12T01:20:56.521Z,12.45
2019-01-12T01:23:26.576Z,7.50
2019-01-12T01:25:56.572Z,8.18
2019-01-12T01:28:26.665Z,24.32
2019-01-12T01:30:56.584Z,12.03
2019-01-12T01:33:28.059Z,11.53
2019-01-12T01:36:03.460Z,9.40
2019-01-12T01:38:32.994Z,11.40
2019-01-12T01:44:15.734Z,7.77
2019-01-12T01:46:45.312Z,13.70
2019-01-12T01:49:14.878Z,11.43
2019-01-12T01:51:44.361Z,7.17
2019-01-12T01:54:13.861Z,13.28
2019-01-12T01:59:43.220Z,7.37
2019-01-12T02:02:12.903Z,8.43
2019-01-12T02:04:42.411Z,7.37
2019-01-12T02:07:11.884Z,15.50
2019-01-12T02:09:41.431Z,6.20
2019-01-12T02:12:10.978Z,6.97
2019-01-12T02:14:52.937Z,10.10
2019-01-12T02:20:13.071Z,17.77
2019-01-12T02:22:42.642Z,3.90
2019-01-12T02:28:26.924Z,7.17
2019-01-12T02:30:56.940Z,13.20
2019-01-12T02:33:26.935Z,6.67
2019-01-12T02:35:56.934Z,12.28
2019-01-12T02:38:26.943Z,14.10
2019-01-12T02:40:56.996Z,12.43
2019-01-12T02:43:26.868Z,9.58
2019-01-12T02:45:56.945Z,13.93
2019-01-12T02:48:26.875Z,9.50
2019-01-12T02:50:56.935Z,5.37
2019-01-12T02:53:26.922Z,5.40
2019-01-12T02:55:56.976Z,7.75
2019-01-12T02:58:26.958Z,8.28
2019-01-12T03:00:56.997Z,6.15
2019-01-12T03:03:26.991Z,12.88
2019-01-12T03:05:57.046Z,16.57
2019-01-12T03:08:27.123Z,4.47
2019-01-12T03:10:57.416Z,5.72
2019-01-12T03:13:27.033Z,14.45
2019-01-12T03:15:57.099Z,4.40
2019-01-12T03:18:27.132Z,6.90
2019-01-12T03:20:57.184Z,2.58
2019-01-12T03:23:27.138Z,3.60
2019-01-12T03:25:57.169Z,4.78
2019-01-12T03:28:27.116Z,11.12
2019-01-12T03:30:57.307Z,4.47
2019-01-12T03:33:27.114Z,3.15
2019-01-12T03:35:57.182Z,4.97
2019-01-12T03:38:27.235Z,8.45
2019-01-12T03:40:57.376Z,9.58
2019-01-12T03:43:27.573Z,5.87
2019-01-12T03:46:04.235Z,2.03
2019-01-12T03:48:35.333Z,5.03
2019-01-12T03:51:05.091Z,4.92
2019-01-12T03:53:34.572Z,3.60
2019-01-12T03:56:05.787Z,5.50
2019-01-12T03:58:35.349Z,4.43
2019-01-12T04:01:04.845Z,3.27
2019-01-12T04:03:34.313Z,1.97
2019-01-12T04:06:03.906Z,3.73
2019-01-12T04:08:33.375Z,6.43
2019-01-12T04:11:02.874Z,1.97
2019-01-12T04:13:32.335Z,4.50
2019-01-12T04:16:01.868Z,4.33
2019-01-12T04:18:31.413Z,2.90
2019-01-12T04:23:54.996Z,3.23
2019-01-12T04:26:24.509Z,3.53
2019-01-12T04:28:53.980Z,2.40
2019-01-12T04:31:23.689Z,2.93
2019-01-12T04:33:53.167Z,3.23
2019-01-12T04:36:23.145Z,4.23
2019-01-12T04:38:52.609Z,3.60
2019-01-12T04:41:22.308Z,2.77
2019-01-12T04:43:51.778Z,4.50
2019-01-12T04:46:21.338Z,3.43
2019-01-12T04:48:50.810Z,2.80
2019-01-12T04:51:20.319Z,3.90
2019-01-12T04:53:49.768Z,4.12
2019-01-12T04:56:19.276Z,3.03
2019-01-12T04:58:48.773Z,3.10
2019-01-12T05:01:18.278Z,3.90
2019-01-12T05:03:47.749Z,3.20
2019-01-12T05:09:31.666Z,2.20
2019-01-12T05:12:01.840Z,3.33
2019-01-12T05:14:31.315Z,3.33
2019-01-12T05:19:54.491Z,4.90
2019-01-12T05:22:24.004Z,2.50
2019-01-12T05:24:54.030Z,3.70
2019-01-12T05:27:23.527Z,3.23
2019-01-12T05:29:52.988Z,4.60
2019-01-12T05:32:24.103Z,2.63
2019-01-12T05:37:42.125Z,1.98
2019-01-12T05:40:11.940Z,4.33
2019-01-12T05:42:41.423Z,2.50
2019-01-12T05:45:11.591Z,5.37
2019-01-12T05:47:41.072Z,3.37
2019-01-12T05:50:12.102Z,3.57
2019-01-12T05:52:41.562Z,6.00
2019-01-12T05:55:11.106Z,3.12
2019-01-12T05:57:40.669Z,3.07
2019-01-12T06:00:14.104Z,3.12
2019-01-12T06:02:43.683Z,3.17
2019-01-12T06:05:13.253Z,9.83
2019-01-12T06:07:42.989Z,4.20
2019-01-12T06:10:17.891Z,5.03
2019-01-12T06:12:47.450Z,5.53
2019-01-12T06:18:17.408Z,1.63
2019-01-12T06:20:46.926Z,2.67
2019-01-12T06:23:16.409Z,1.93
2019-01-12T06:25:45.881Z,1.70
2019-01-12T06:28:15.383Z,5.83
2019-01-12T06:30:44.853Z,4.40
2019-01-12T06:33:14.590Z,2.70
2019-01-12T06:35:44.262Z,2.90
2019-01-12T06:38:13.754Z,1.47
2019-01-12T06:40:43.315Z,1.50
2019-01-12T06:43:12.810Z,1.80
2019-01-12T06:45:42.291Z,2.58
2019-01-12T06:48:30.832Z,2.03
2019-01-12T06:51:00.320Z,2.10
2019-01-12T06:53:30.031Z,2.13
2019-01-12T06:55:59.516Z,2.00
2019-01-12T06:58:29.018Z,3.40
2019-01-12T07:00:58.608Z,1.80
2019-01-12T07:03:28.625Z,2.37
2019-01-12T07:05:58.540Z,2.10
2019-01-12T07:08:28.695Z,2.45
2019-01-12T07:10:58.712Z,2.20
2019-01-12T07:13:28.576Z,2.85
2019-01-12T07:15:58.682Z,1.70
2019-01-12T07:18:28.624Z,2.25
2019-01-12T07:20:58.585Z,1.40
2019-01-12T07:23:28.965Z,1.85
2019-01-12T07:25:58.685Z,3.65
2019-01-12T07:28:28.680Z,10.43
2019-01-12T07:30:58.683Z,5.90
2019-01-12T07:33:28.735Z,4.25
2019-01-12T07:35:58.722Z,3.50
2019-01-12T07:38:28.697Z,3.45
2019-01-12T07:40:58.785Z,7.75
2019-01-12T07:43:28.785Z,2.65
2019-01-12T07:45:58.782Z,2.85
2019-01-12T07:48:28.922Z,2.20
2019-01-12T07:50:58.826Z,2.15
2019-01-12T07:53:28.775Z,3.27
2019-01-12T07:55:58.863Z,3.70
2019-01-12T07:58:28.926Z,2.62
2019-01-12T08:00:58.938Z,2.52
2019-01-12T08:03:28.863Z,2.02
2019-01-12T08:05:58.826Z,2.27
2019-01-12T08:08:28.334Z,2.50
2019-01-12T08:10:57.845Z,2.40
2019-01-12T08:13:27.459Z,1.80
2019-01-12T08:15:57.020Z,4.07
2019-01-12T08:18:26.805Z,1.60
2019-01-12T08:20:56.483Z,3.83
2019-01-12T08:23:26.001Z,2.43
2019-01-12T08:29:12.607Z,2.00
2019-01-12T08:31:42.366Z,4.63
2019-01-12T08:34:12.027Z,2.20
2019-01-12T08:36:41.631Z,2.13
2019-01-12T08:39:35.069Z,2.60
2019-01-12T08:42:04.885Z,4.23
2019-01-12T08:44:34.491Z,5.77
2019-01-12T08:47:04.032Z,3.83
2019-01-12T08:49:33.536Z,5.40
2019-01-12T08:52:03.013Z,3.83
2019-01-12T08:54:32.613Z,3.27
2019-01-12T09:05:48.065Z,5.27
2019-01-12T09:08:18.030Z,3.67
2019-01-12T09:10:48.028Z,3.45
2019-01-12T09:13:18.170Z,5.47
2019-01-12T09:18:29.592Z,3.00
2019-01-12T09:20:59.088Z,4.77
2019-01-12T09:23:28.682Z,4.80
2019-01-12T09:26:17.284Z,4.93
2019-01-12T09:28:46.860Z,6.40
2019-01-12T09:31:16.344Z,6.50
2019-01-12T09:33:45.908Z,8.43
2019-01-12T09:36:15.738Z,4.22
2019-01-12T09:38:45.371Z,4.33
2019-01-12T09:41:15.004Z,5.93
2019-01-12T09:43:44.675Z,5.93
2019-01-12T09:46:14.177Z,7.53
2019-01-12T09:48:43.814Z,7.90
2019-01-12T09:51:13.273Z,6.80
2019-01-12T09:53:42.855Z,7.50
2019-01-12T09:56:12.317Z,9.23
2019-01-12T09:58:41.815Z,13.70
2019-01-12T10:01:11.330Z,11.87
2019-01-12T10:03:59.983Z,9.80
2019-01-12T10:06:34.844Z,7.37
2019-01-12T10:09:44.248Z,6.23
2019-01-12T10:12:13.717Z,4.53
2019-01-12T10:14:43.212Z,5.27
2019-01-12T10:17:12.673Z,7.13
2019-01-12T10:19:42.156Z,5.30
2019-01-12T10:22:11.649Z,6.47
2019-01-12T10:24:41.480Z,4.35
2019-01-12T10:27:11.354Z,7.08
2019-01-12T10:29:41.425Z,4.03
2019-01-12T10:32:11.382Z,3.40
2019-01-12T10:34:41.587Z,6.33
2019-01-12T10:37:11.413Z,6.33
2019-01-12T10:39:41.394Z,8.35
2019-01-12T10:42:11.561Z,7.60
2019-01-12T10:44:41.412Z,8.10
2019-01-12T10:47:11.534Z,3.95
2019-01-12T10:49:41.449Z,7.67
2019-01-12T10:52:11.471Z,5.35
2019-01-12T10:54:41.543Z,8.60
2019-01-12T10:57:11.498Z,9.68
2019-01-12T10:59:41.649Z,9.10
2019-01-12T11:02:11.568Z,7.28
2019-01-12T11:04:41.577Z,10.32
2019-01-12T11:10:36.669Z,11.93
2019-01-12T11:15:48.758Z,7.40
2019-01-12T11:18:18.307Z,10.90
2019-01-12T11:20:47.879Z,12.63
2019-01-12T11:23:17.358Z,17.33
2019-01-12T11:25:48.476Z,11.75
2019-01-12T11:28:17.959Z,12.97
2019-01-12T11:30:47.453Z,11.75
2019-01-12T11:33:16.924Z,8.70
2019-01-12T11:35:46.427Z,8.75
2019-01-12T11:38:15.885Z,10.43
2019-01-12T11:40:45.563Z,10.13
2019-01-12T11:43:34.260Z,12.77
2019-01-12T11:46:03.996Z,12.10
2019-01-12T11:48:33.474Z,17.50
2019-01-12T11:51:23.887Z,11.65
2019-01-12T11:56:53.308Z,12.53
2019-01-12T11:59:22.821Z,10.50
2019-01-12T12:01:54.014Z,16.77
2019-01-12T12:04:23.534Z,14.75
2019-01-12T12:06:53.077Z,12.30
2019-01-12T12:09:22.546Z,10.60
2019-01-12T12:11:52.057Z,17.30
2019-01-12T12:14:21.655Z,11.70
2019-01-12T12:16:51.178Z,21.40
2019-01-12T12:22:09.337Z,13.63
2019-01-12T12:24:38.862Z,17.70
2019-01-12T12:27:08.380Z,12.13
2019-01-12T12:29:37.931Z,16.23
2019-01-12T12:32:07.460Z,13.30
2019-01-12T12:34:56.288Z,14.40
2019-01-12T12:37:37.692Z,16.87
2019-01-12T12:40:27.364Z,14.40
2019-01-12T12:42:56.947Z,13.50
2019-01-12T12:45:31.526Z,11.90
2019-01-12T12:48:01.074Z,10.30
2019-01-12T12:50:32.225Z,10.30
2019-01-12T12:56:21.092Z,11.73
2019-01-12T12:58:50.585Z,8.10
2019-01-12T13:01:20.140Z,9.93
2019-01-12T13:03:49.564Z,11.20
2019-01-12T13:06:19.132Z,9.27
2019-01-12T13:08:48.742Z,8.57
2019-01-12T13:13:59.745Z,8.60
2019-01-12T13:16:29.331Z,9.87
2019-01-12T13:18:58.886Z,8.37
2019-01-12T13:21:28.473Z,8.90
2019-01-12T13:23:58.261Z,7.27
2019-01-12T13:26:46.966Z,7.83
2019-01-12T13:29:16.483Z,6.08
2019-01-12T13:31:46.003Z,9.90
2019-01-12T13:34:15.707Z,7.20
2019-01-12T13:36:45.216Z,6.83
2019-01-12T13:39:14.724Z,7.10
2019-01-12T13:41:44.252Z,8.30
2019-01-12T13:44:13.810Z,8.23
2019-01-12T13:46:43.797Z,7.28
2019-01-12T13:49:13.954Z,8.78
2019-01-12T13:51:45.379Z,7.33
2019-01-12T13:54:23.996Z,9.07
2019-01-12T13:56:53.486Z,10.73
2019-01-12T13:59:22.940Z,7.90
2019-01-12T14:01:52.448Z,15.60
2019-01-12T14:04:41.034Z,11.57
2019-01-12T14:07:10.558Z,12.93
2019-01-12T14:09:40.027Z,10.83
2019-01-12T14:12:09.545Z,11.30
2019-01-12T14:14:39.014Z,12.70
2019-01-12T14:17:10.204Z,21.97
2019-01-12T14:19:39.677Z,11.10
2019-01-12T14:22:09.204Z,20.00
2019-01-12T14:24:57.765Z,8.07
2019-01-12T14:27:27.257Z,11.60
2019-01-12T14:29:56.732Z,19.90
2019-01-12T14:32:26.240Z,10.07
2019-01-12T14:34:55.708Z,11.40
2019-01-12T14:37:25.192Z,9.63
2019-01-12T14:39:54.663Z,10.43
2019-01-12T14:42:24.155Z,8.63
2019-01-12T14:44:53.778Z,7.00
2019-01-12T14:47:23.336Z,10.43
2019-01-12T14:49:52.825Z,8.03
2019-01-12T14:52:22.380Z,8.63
2019-01-12T14:54:51.909Z,13.18
2019-01-12T14:57:21.415Z,9.97
2019-01-12T14:59:50.977Z,8.23
2019-01-12T15:02:39.627Z,5.07
2019-01-12T15:05:10.927Z,11.10
2019-01-12T15:07:40.505Z,9.27
2019-01-12T15:10:11.765Z,6.78
2019-01-12T15:12:41.346Z,7.27
2019-01-12T15:15:11.799Z,8.70
2019-01-12T15:17:41.477Z,9.60
2019-01-12T15:23:26.201Z,6.28
2019-01-12T15:25:55.689Z,5.00
2019-01-12T15:28:44.932Z,4.58
2019-01-12T15:33:56.748Z,3.30
2019-01-12T15:36:26.357Z,6.20
2019-01-12T15:38:56.000Z,5.20
2019-01-12T15:41:25.480Z,3.70
2019-01-12T15:43:55.019Z,5.80
2019-01-12T15:46:24.510Z,4.27
2019-01-12T15:48:54.008Z,3.53
2019-01-12T15:51:23.499Z,5.57
2019-01-12T15:53:53.064Z,6.50
2019-01-12T15:56:22.554Z,8.57
2019-01-12T15:58:52.051Z,7.77
2019-01-12T16:01:21.525Z,6.23
2019-01-12T16:03:51.013Z,4.53
2019-01-12T16:06:20.509Z,3.60
2019-01-12T16:09:28.322Z,7.60
2019-01-12T16:11:57.783Z,7.00
2019-01-12T16:14:46.381Z,7.10
2019-01-12T16:17:15.844Z,8.77
2019-01-12T16:19:47.026Z,6.40
2019-01-12T16:22:16.490Z,4.77
2019-01-12T16:24:45.992Z,7.92
2019-01-12T16:27:15.485Z,7.00
2019-01-12T16:29:45.140Z,5.62
2019-01-12T16:32:15.267Z,10.78
2019-01-12T16:34:45.292Z,5.00
2019-01-12T16:37:14.791Z,8.40
2019-01-12T16:39:44.303Z,5.13
2019-01-12T16:42:13.778Z,8.30
2019-01-12T16:44:43.268Z,8.63
2019-01-12T16:47:14.357Z,8.60
2019-01-12T16:52:39.518Z,4.50
2019-01-12T16:57:51.870Z,5.20
2019-01-12T17:00:26.527Z,11.40
2019-01-12T17:02:56.107Z,5.17
2019-01-12T17:05:25.649Z,8.80
2019-01-12T17:07:55.145Z,5.33
2019-01-12T17:10:24.609Z,9.50
2019-01-12T17:12:54.173Z,8.17
2019-01-12T17:15:24.163Z,18.53
2019-01-12T17:17:53.657Z,10.23
2019-01-12T17:20:25.844Z,9.27
2019-01-12T17:22:57.896Z,9.08
2019-01-12T17:25:27.444Z,16.83
2019-01-12T17:27:57.057Z,10.83
2019-01-12T17:30:26.687Z,9.57
2019-01-12T17:32:56.241Z,11.48
2019-01-12T17:35:26.342Z,4.70
2019-01-12T17:37:56.076Z,8.23
2019-01-12T17:40:25.637Z,9.30
2019-01-12T17:43:16.111Z,12.87
2019-01-12T17:45:45.612Z,4.90
2019-01-12T17:48:15.178Z,4.70
2019-01-12T17:50:44.696Z,10.07
2019-01-12T17:53:14.214Z,6.67
2019-01-12T17:55:43.715Z,8.50
2019-01-12T17:58:13.192Z,12.40
2019-01-12T18:01:01.773Z,6.97
2019-01-12T18:03:50.917Z,3.03
2019-01-12T18:06:20.414Z,6.22
2019-01-12T18:08:49.932Z,5.33
2019-01-12T18:11:19.403Z,5.35
2019-01-12T18:13:48.902Z,6.07
2019-01-12T18:16:18.393Z,20.23
2019-01-12T18:18:47.910Z,4.90
2019-01-12T18:21:17.396Z,7.97
2019-01-12T18:23:46.960Z,8.00
2019-01-12T18:29:30.095Z,5.42
2019-01-12T18:31:59.614Z,4.10
2019-01-12T18:34:29.239Z,7.00
2019-01-12T18:36:58.736Z,10.05
2019-01-12T18:39:28.255Z,7.80
2019-01-12T18:41:57.717Z,6.73
2019-01-12T18:44:27.353Z,7.50
2019-01-12T18:46:56.839Z,7.47
2019-01-12T18:49:26.381Z,6.30
2019-01-12T18:51:55.861Z,8.37
2019-01-12T18:54:25.368Z,12.50
2019-01-12T18:56:54.853Z,12.37
2019-01-12T18:59:24.326Z,4.23
2019-01-12T19:01:53.916Z,5.03
2019-01-12T19:04:23.445Z,6.43
2019-01-12T19:06:53.032Z,9.13
2019-01-12T19:09:22.574Z,8.73
2019-01-12T19:11:52.472Z,4.30
2019-01-12T19:14:22.121Z,7.90
2019-01-12T19:16:52.185Z,5.03
2019-01-12T19:19:22.314Z,3.90
2019-01-12T19:21:52.386Z,5.92
2019-01-12T19:24:22.392Z,4.65
2019-01-12T19:26:52.310Z,4.78
2019-01-12T19:29:41.610Z,3.02
2019-01-12T19:32:11.157Z,4.70
2019-01-12T19:34:40.650Z,3.63
2019-01-12T19:37:10.315Z,9.95
2019-01-12T19:39:39.850Z,2.60
2019-01-12T19:42:09.374Z,4.23
2019-01-12T19:44:38.921Z,3.45
2019-01-12T19:47:08.417Z,2.52
2019-01-12T19:49:37.945Z,4.10
2019-01-12T19:52:07.429Z,7.10
2019-01-12T19:54:36.950Z,6.73
2019-01-12T19:57:06.464Z,8.40
2019-01-12T19:59:36.012Z,7.40
2019-01-12T20:02:05.607Z,7.90
2019-01-12T20:04:35.306Z,3.87
2019-01-12T20:07:04.899Z,3.70
2019-01-12T20:09:34.367Z,8.80
2019-01-12T20:12:16.301Z,6.13
2019-01-12T20:14:45.857Z,3.33
2019-01-12T20:17:34.666Z,8.10
2019-01-12T20:20:05.728Z,2.93
2019-01-12T20:22:35.229Z,3.20
2019-01-12T20:25:05.077Z,3.23
2019-01-12T20:27:36.216Z,6.03
2019-01-12T20:30:27.259Z,3.40
2019-01-12T20:33:20.597Z,2.73
2019-01-12T20:36:12.725Z,5.37
2019-01-12T20:39:05.864Z,4.67
2019-01-12T20:42:15.649Z,9.10
2019-01-12T20:45:23.751Z,4.63
2019-01-12T20:48:32.297Z,4.12
2019-01-12T20:51:24.541Z,6.93
2019-01-12T20:54:12.113Z,5.20
2019-01-12T20:56:54.236Z,5.87
2019-01-12T20:59:47.353Z,5.50
2019-01-12T21:02:55.406Z,4.30
2019-01-12T21:06:03.450Z,8.30
2019-01-12T21:09:11.590Z,4.75
2019-01-12T21:12:19.663Z,4.65
2019-01-12T21:15:10.710Z,4.17
2019-01-12T21:17:40.202Z,2.20
2019-01-12T21:20:11.094Z,3.57
2019-01-12T21:22:40.705Z,3.30
2019-01-12T21:25:10.340Z,3.17
2019-01-12T21:27:40.017Z,11.93
2019-01-12T21:30:13.228Z,2.30
2019-01-12T21:32:42.762Z,8.23
2019-01-12T21:35:12.507Z,4.77
2019-01-12T21:37:42.178Z,4.30
2019-01-12T21:40:11.915Z,7.17
2019-01-12T21:42:41.408Z,9.23
2019-01-12T21:45:12.522Z,6.57
2019-01-12T21:47:42.095Z,7.37
2019-01-12T21:50:13.168Z,5.87
2019-01-12T21:52:42.703Z,4.90
2019-01-12T21:55:31.475Z,4.60
2019-01-12T22:00:54.736Z,6.63
2019-01-12T22:03:24.306Z,6.03
2019-01-12T22:05:53.783Z,9.17
2019-01-12T22:08:23.268Z,7.70
2019-01-12T22:10:54.392Z,10.73
2019-01-12T22:13:23.889Z,6.23
2019-01-12T22:15:53.467Z,10.87
2019-01-12T22:18:22.970Z,12.40
2019-01-12T22:21:11.747Z,12.53
2019-01-12T22:23:41.301Z,12.40
2019-01-12T22:26:10.933Z,5.83
2019-01-12T22:28:42.135Z,10.80
2019-01-12T22:31:11.707Z,6.30
2019-01-12T22:33:41.225Z,4.57
2019-01-12T22:36:10.828Z,16.20
2019-01-12T22:38:40.361Z,7.53
2019-01-12T22:44:12.873Z,11.40
2019-01-12T22:46:42.408Z,4.75
2019-01-12T22:49:11.929Z,4.33
2019-01-12T22:51:41.431Z,3.73
2019-01-12T22:54:10.943Z,6.30
2019-01-12T22:56:40.436Z,3.00
2019-01-12T22:59:09.937Z,3.63
2019-01-12T23:02:17.973Z,6.35
2019-01-12T23:04:47.576Z,7.30
2019-01-12T23:07:17.258Z,5.87
2019-01-12T23:09:46.817Z,6.50
2019-01-12T23:12:16.342Z,7.70
2019-01-12T23:14:45.908Z,8.05
2019-01-12T23:17:15.412Z,3.45
2019-01-12T23:19:44.941Z,4.73
2019-01-12T23:22:14.435Z,4.40
2019-01-12T23:24:43.971Z,6.27
2019-01-12T23:27:13.482Z,2.90
2019-01-12T23:29:42.997Z,7.60
2019-01-12T23:32:12.559Z,3.50
2019-01-12T23:34:42.096Z,10.40
2019-01-12T23:37:11.626Z,7.28
2019-01-12T23:39:41.217Z,6.40
2019-01-12T23:42:10.807Z,6.80
2019-01-12T23:44:40.301Z,5.10
2019-01-12T23:47:09.947Z,9.43
2019-01-12T23:49:39.454Z,3.43
2019-01-12T23:52:08.992Z,1.90
2019-01-12T23:54:38.513Z,6.77
2019-01-12T23:57:07.993Z,7.40
2019-01-12T23:59:37.539Z,13.53
